Time;durP1;ratioP1;P1;durP2;ratioP2;P2;SDS_P1;SDS_P2;PMS_P1;PMS_P2;Temp;Humidity;BMP_temperature;BMP_pressure;BME280_temperature;BME280_humidity;BME280_pressure;Samples;Min_cycle;Max_cycle;Signal;HPM_P1;HPM_P2
2021/09/26 00:00:09;;;;;;;5.36;3.36;;;;;;;;;;363602;146;857245;-57
2021/09/26 00:01:11;;;;;;;4.25;2.96;;;;;;;;;;363422;146;864784;-58
2021/09/26 00:02:13;;;;;;;6.09;2.90;;;;;;;;;;363875;146;856522;-58
2021/09/26 00:03:15;;;;;;;4.11;2.79;;;;;;;;;;361020;147;857503;-58
2021/09/26 00:04:17;;;;;;;5.61;3.09;;;;;;;;;;361200;147;867020;-57
2021/09/26 00:05:18;;;;;;;4.82;2.86;;;;;;;;;;362539;146;857321;-57
2021/09/26 00:06:22;;;;;;;6.67;2.92;;;;;;;;;;362473;147;864215;-57
2021/09/26 00:07:23;;;;;;;5.36;2.71;;;;;;;;;;362797;146;859498;-57
2021/09/26 00:08:25;;;;;;;4.04;2.97;;;;;;;;;;363078;146;858360;-57
2021/09/26 00:09:28;;;;;;;5.77;2.93;;;;;;;;;;362977;146;857191;-57
2021/09/26 00:10:30;;;;;;;5.34;2.45;;;;;;;;;;362817;146;857099;-57
2021/09/26 00:11:32;;;;;;;5.60;2.94;;;;;;;;;;363943;146;857688;-57
2021/09/26 00:12:34;;;;;;;4.64;3.02;;;;;;;;;;363169;146;859127;-57
2021/09/26 00:13:36;;;;;;;6.84;2.66;;;;;;;;;;363034;147;866100;-57
2021/09/26 00:14:37;;;;;;;4.37;3.03;;;;;;;;;;363068;146;859513;-56
2021/09/26 00:15:39;;;;;;;5.86;2.64;;;;;;;;;;362371;146;858898;-56
2021/09/26 00:16:41;;;;;;;5.52;2.48;;;;;;;;;;362392;147;860888;-59
2021/09/26 00:17:43;;;;;;;6.70;2.57;;;;;;;;;;363283;147;858624;-57
2021/09/26 00:18:44;;;;;;;4.67;2.68;;;;;;;;;;363001;146;857946;-57
2021/09/26 00:19:46;;;;;;;8.01;3.20;;;;;;;;;;362581;146;857524;-57
2021/09/26 00:20:48;;;;;;;3.72;2.33;;;;;;;;;;364463;147;866509;-57
2021/09/26 00:21:50;;;;;;;4.76;2.47;;;;;;;;;;363357;147;857619;-57
2021/09/26 00:22:52;;;;;;;3.99;2.75;;;;;;;;;;362472;146;860141;-57
2021/09/26 00:23:55;;;;;;;4.31;2.83;;;;;;;;;;361939;147;864748;-58
2021/09/26 00:24:57;;;;;;;5.86;2.86;;;;;;;;;;362324;146;857251;-57
2021/09/26 00:25:58;;;;;;;6.55;3.12;;;;;;;;;;362413;146;858646;-58
2021/09/26 00:27:00;;;;;;;4.51;2.71;;;;;;;;;;362977;146;859043;-59
2021/09/26 00:28:02;;;;;;;6.27;3.09;;;;;;;;;;364233;147;857246;-58
2021/09/26 00:29:03;;;;;;;5.26;2.87;;;;;;;;;;365668;146;857150;-58
2021/09/26 00:30:06;;;;;;;7.43;3.00;;;;;;;;;;362901;146;857264;-58
2021/09/26 00:31:07;;;;;;;7.60;3.01;;;;;;;;;;363061;147;857113;-58
2021/09/26 00:32:10;;;;;;;6.26;3.24;;;;;;;;;;361265;147;860811;-59
2021/09/26 00:33:12;;;;;;;4.45;2.99;;;;;;;;;;357275;148;857141;-58
2021/09/26 00:34:13;;;;;;;3.78;2.59;;;;;;;;;;359845;147;857805;-57
2021/09/26 00:35:17;;;;;;;4.41;2.76;;;;;;;;;;361419;147;857324;-57
2021/09/26 00:36:19;;;;;;;5.88;3.08;;;;;;;;;;359395;148;857321;-56
2021/09/26 00:37:20;;;;;;;6.16;2.94;;;;;;;;;;359865;147;860294;-57
2021/09/26 00:38:22;;;;;;;4.92;3.13;;;;;;;;;;358688;148;857267;-57
2021/09/26 00:39:23;;;;;;;5.28;2.61;;;;;;;;;;359970;147;860628;-56
2021/09/26 00:40:25;;;;;;;4.02;2.57;;;;;;;;;;359412;147;858129;-56
2021/09/26 00:41:27;;;;;;;3.90;2.90;;;;;;;;;;358854;147;857104;-58
2021/09/26 00:42:28;;;;;;;4.86;2.53;;;;;;;;;;361479;147;857151;-58
2021/09/26 00:43:30;;;;;;;4.46;3.35;;;;;;;;;;358520;147;857348;-58
2021/09/26 00:44:31;;;;;;;8.02;3.69;;;;;;;;;;359710;147;857173;-58
2021/09/26 00:45:33;;;;;;;5.66;3.18;;;;;;;;;;359159;147;857298;-57
2021/09/26 00:46:35;;;;;;;4.21;3.03;;;;;;;;;;359933;149;859127;-57
2021/09/26 00:47:37;;;;;;;6.48;3.15;;;;;;;;;;359121;147;858933;-57
2021/09/26 00:48:38;;;;;;;4.49;3.10;;;;;;;;;;356682;147;858918;-57
2021/09/26 00:49:40;;;;;;;4.59;3.05;;;;;;;;;;359369;147;865659;-57
2021/09/26 00:50:42;;;;;;;4.74;3.09;;;;;;;;;;358631;147;865791;-57
2021/09/26 00:51:44;;;;;;;8.82;3.14;;;;;;;;;;359481;146;864771;-57
2021/09/26 00:52:46;;;;;;;8.12;3.38;;;;;;;;;;358882;147;866550;-57
2021/09/26 00:53:47;;;;;;;5.77;3.00;;;;;;;;;;360108;147;857192;-58
2021/09/26 00:54:49;;;;;;;6.87;3.04;;;;;;;;;;358808;147;857376;-57
2021/09/26 00:55:52;;;;;;;4.66;3.10;;;;;;;;;;358217;147;865579;-57
2021/09/26 00:56:54;;;;;;;8.06;3.34;;;;;;;;;;358556;147;858679;-57
2021/09/26 00:57:55;;;;;;;5.41;3.09;;;;;;;;;;358286;147;857286;-58
2021/09/26 00:58:57;;;;;;;3.58;2.59;;;;;;;;;;358393;147;857402;-57
2021/09/26 00:59:59;;;;;;;6.92;2.87;;;;;;;;;;358784;147;857912;-57
2021/09/26 01:01:00;;;;;;;5.49;3.01;;;;;;;;;;359018;149;858432;-57
2021/09/26 01:02:02;;;;;;;7.37;3.21;;;;;;;;;;358261;147;859510;-57
2021/09/26 01:03:04;;;;;;;4.99;2.77;;;;;;;;;;359393;147;859219;-57
2021/09/26 01:04:05;;;;;;;4.71;3.16;;;;;;;;;;358817;147;857243;-57
2021/09/26 01:05:08;;;;;;;4.81;3.43;;;;;;;;;;358896;147;865538;-57
2021/09/26 01:06:11;;;;;;;3.06;2.45;;;;;;;;;;359279;146;858577;-57
2021/09/26 01:07:27;;;;;;;7.59;2.77;;;;;;;;;;357660;148;857081;-58
2021/09/26 01:08:31;;;;;;;3.69;2.88;;;;;;;;;;358620;147;857574;-57
2021/09/26 01:09:43;;;;;;;4.92;2.94;;;;;;;;;;358984;147;859254;-57
2021/09/26 01:10:47;;;;;;;4.71;3.03;;;;;;;;;;357811;147;864740;-57
2021/09/26 01:12:02;;;;;;;7.18;3.23;;;;;;;;;;359471;147;857187;-58
2021/09/26 01:13:09;;;;;;;6.72;3.62;;;;;;;;;;356955;148;864902;-57
2021/09/26 01:14:25;;;;;;;7.86;3.59;;;;;;;;;;359688;147;859587;-58
2021/09/26 01:15:42;;;;;;;6.20;3.16;;;;;;;;;;359353;147;859118;-57
2021/09/26 01:16:43;;;;;;;4.23;3.31;;;;;;;;;;358273;147;857672;-58
2021/09/26 01:17:47;;;;;;;4.85;2.99;;;;;;;;;;358769;147;857262;-57
2021/09/26 01:19:00;;;;;;;4.97;3.07;;;;;;;;;;359263;147;857152;-58
2021/09/26 01:20:19;;;;;;;4.81;3.18;;;;;;;;;;359157;147;857377;-57
2021/09/26 01:21:25;;;;;;;6.35;3.48;;;;;;;;;;358869;147;857334;-57
2021/09/26 01:22:29;;;;;;;8.38;2.93;;;;;;;;;;358436;148;857914;-58
2021/09/26 01:23:32;;;;;;;6.60;3.14;;;;;;;;;;358750;147;859667;-58
2021/09/26 01:24:38;;;;;;;6.11;3.39;;;;;;;;;;344461;153;860494;-57
2021/09/26 01:25:42;;;;;;;4.89;2.93;;;;;;;;;;351527;149;857265;-57
2021/09/26 01:26:44;;;;;;;4.19;2.86;;;;;;;;;;359634;147;857128;-58
2021/09/26 01:28:04;;;;;;;5.59;3.19;;;;;;;;;;360077;147;857617;-58
2021/09/26 01:29:08;;;;;;;5.41;2.74;;;;;;;;;;358274;147;865192;-58
2021/09/26 01:30:27;;;;;;;5.65;3.16;;;;;;;;;;359154;149;865587;-57
2021/09/26 01:31:34;;;;;;;4.68;3.43;;;;;;;;;;356738;149;857984;-57
2021/09/26 01:32:36;;;;;;;4.77;3.12;;;;;;;;;;359607;147;857903;-57
2021/09/26 01:33:42;;;;;;;9.38;3.32;;;;;;;;;;363038;146;857307;-57
2021/09/26 01:34:45;;;;;;;5.81;3.46;;;;;;;;;;362843;146;857553;-57
2021/09/26 01:36:01;;;;;;;6.98;2.93;;;;;;;;;;362665;146;857669;-58
2021/09/26 01:37:04;;;;;;;4.63;2.98;;;;;;;;;;362974;146;857188;-57
2021/09/26 01:38:07;;;;;;;6.59;3.42;;;;;;;;;;361404;147;857281;-58
2021/09/26 01:39:11;;;;;;;6.03;2.78;;;;;;;;;;362382;146;858973;-57
2021/09/26 01:40:15;;;;;;;6.69;3.11;;;;;;;;;;362454;147;865594;-59
2021/09/26 01:41:21;;;;;;;4.41;2.89;;;;;;;;;;363517;146;857715;-59
2021/09/26 01:42:24;;;;;;;6.69;2.72;;;;;;;;;;362917;146;857349;-58
2021/09/26 01:43:27;;;;;;;5.07;2.93;;;;;;;;;;361031;146;857214;-59
2021/09/26 01:44:33;;;;;;;5.57;3.43;;;;;;;;;;359911;147;858408;-58
2021/09/26 01:45:36;;;;;;;9.39;3.09;;;;;;;;;;362687;147;857979;-58
2021/09/26 01:46:39;;;;;;;5.78;3.15;;;;;;;;;;362946;146;860315;-57
2021/09/26 01:47:41;;;;;;;4.39;2.94;;;;;;;;;;363358;146;858872;-57
2021/09/26 01:48:44;;;;;;;4.38;2.75;;;;;;;;;;363638;146;857218;-57
2021/09/26 01:49:51;;;;;;;5.71;2.95;;;;;;;;;;362159;147;857313;-58
2021/09/26 01:50:52;;;;;;;5.39;2.71;;;;;;;;;;360579;147;858081;-58
2021/09/26 01:51:54;;;;;;;3.80;2.63;;;;;;;;;;355449;149;857274;-58
2021/09/26 01:52:56;;;;;;;5.36;2.56;;;;;;;;;;355447;147;864725;-58
2021/09/26 01:53:58;;;;;;;7.69;2.79;;;;;;;;;;362884;146;857217;-58
2021/09/26 01:54:59;;;;;;;7.36;3.14;;;;;;;;;;363095;147;858501;-58
2021/09/26 01:56:01;;;;;;;5.76;2.99;;;;;;;;;;362897;147;864865;-58
2021/09/26 01:57:03;;;;;;;7.32;3.26;;;;;;;;;;363210;147;857193;-57
2021/09/26 01:58:04;;;;;;;5.46;2.89;;;;;;;;;;363058;146;857706;-58
2021/09/26 01:59:06;;;;;;;5.10;2.73;;;;;;;;;;362582;146;863843;-57
2021/09/26 02:00:09;;;;;;;8.79;3.34;;;;;;;;;;362725;146;858392;-57
2021/09/26 02:01:10;;;;;;;5.22;3.16;;;;;;;;;;361481;146;857873;-58
2021/09/26 02:02:12;;;;;;;6.44;3.36;;;;;;;;;;363215;146;865628;-57
2021/09/26 02:03:14;;;;;;;3.71;2.61;;;;;;;;;;362252;147;857821;-57
2021/09/26 02:04:17;;;;;;;6.67;3.00;;;;;;;;;;363074;146;866086;-57
2021/09/26 02:05:19;;;;;;;5.49;2.91;;;;;;;;;;362797;146;860677;-57
2021/09/26 02:06:23;;;;;;;3.86;2.80;;;;;;;;;;362976;145;857279;-57
2021/09/26 02:07:25;;;;;;;4.44;2.47;;;;;;;;;;362429;146;857713;-57
2021/09/26 02:08:26;;;;;;;6.62;3.20;;;;;;;;;;362606;146;861236;-57
2021/09/26 02:09:28;;;;;;;6.95;2.79;;;;;;;;;;362497;147;859187;-59
2021/09/26 02:10:29;;;;;;;7.15;3.09;;;;;;;;;;363128;146;858919;-58
2021/09/26 02:11:31;;;;;;;6.28;2.86;;;;;;;;;;362624;146;864687;-58
2021/09/26 02:12:33;;;;;;;7.06;3.39;;;;;;;;;;362278;146;857489;-57
2021/09/26 02:13:34;;;;;;;6.69;3.38;;;;;;;;;;362862;146;864819;-58
2021/09/26 02:14:38;;;;;;;6.14;3.13;;;;;;;;;;362484;147;857340;-57
2021/09/26 02:15:39;;;;;;;4.03;2.79;;;;;;;;;;362964;146;857231;-57
2021/09/26 02:16:41;;;;;;;7.54;3.39;;;;;;;;;;363365;147;859235;-57
2021/09/26 02:17:43;;;;;;;4.54;3.11;;;;;;;;;;362095;146;864741;-57
2021/09/26 02:18:45;;;;;;;8.81;2.85;;;;;;;;;;362455;146;857664;-57
2021/09/26 02:19:46;;;;;;;6.99;3.29;;;;;;;;;;362629;145;857238;-57
2021/09/26 02:20:48;;;;;;;6.56;2.60;;;;;;;;;;361944;147;857605;-58
2021/09/26 02:21:49;;;;;;;5.78;2.89;;;;;;;;;;362182;147;857441;-58
2021/09/26 02:22:52;;;;;;;4.95;3.21;;;;;;;;;;364287;146;857084;-58
2021/09/26 02:23:53;;;;;;;9.51;3.07;;;;;;;;;;363040;146;862841;-57
2021/09/26 02:24:55;;;;;;;6.59;3.03;;;;;;;;;;363300;147;859042;-57
2021/09/26 02:25:56;;;;;;;8.56;4.19;;;;;;;;;;363267;147;864814;-57
2021/09/26 02:26:58;;;;;;;5.51;2.89;;;;;;;;;;361574;146;859746;-57
2021/09/26 02:28:00;;;;;;;7.65;3.41;;;;;;;;;;363304;147;864856;-58
2021/09/26 02:29:02;;;;;;;5.01;3.02;;;;;;;;;;365085;147;857328;-59
2021/09/26 02:30:04;;;;;;;3.91;2.83;;;;;;;;;;362048;147;857235;-57
2021/09/26 02:31:09;;;;;;;5.67;3.32;;;;;;;;;;361641;147;857719;-58
2021/09/26 02:32:11;;;;;;;7.51;2.85;;;;;;;;;;362762;147;858089;-58
2021/09/26 02:33:12;;;;;;;8.65;3.11;;;;;;;;;;363178;146;856411;-58
2021/09/26 02:34:14;;;;;;;5.89;3.39;;;;;;;;;;358312;147;861114;-57
2021/09/26 02:35:15;;;;;;;10.29;3.81;;;;;;;;;;358312;147;857529;-57
2021/09/26 02:36:18;;;;;;;7.30;2.94;;;;;;;;;;358164;148;860217;-58
2021/09/26 02:37:20;;;;;;;6.96;3.37;;;;;;;;;;358045;147;865581;-57
2021/09/26 02:38:22;;;;;;;5.48;2.75;;;;;;;;;;357755;148;857392;-57
2021/09/26 02:39:23;;;;;;;7.93;3.22;;;;;;;;;;358078;148;857452;-58
2021/09/26 02:40:26;;;;;;;17.03;3.53;;;;;;;;;;357903;148;857280;-57
2021/09/26 02:41:29;;;;;;;6.65;3.28;;;;;;;;;;359458;147;856569;-57
2021/09/26 02:42:38;;;;;;;8.01;3.16;;;;;;;;;;358586;147;856092;-57
2021/09/26 02:43:42;;;;;;;6.79;3.42;;;;;;;;;;358221;147;856282;-57
2021/09/26 02:44:52;;;;;;;6.94;3.48;;;;;;;;;;357648;147;856515;-57
2021/09/26 02:45:55;;;;;;;8.64;3.52;;;;;;;;;;358345;148;856000;-57
2021/09/26 02:46:58;;;;;;;4.64;3.21;;;;;;;;;;358446;148;856352;-57
2021/09/26 02:49:45;;;;;;;7.73;2.94;;;;;;;13.37;75.76;99900.69;369432;142;881266;-57
2021/09/26 02:50:48;;;;;;;4.65;1.81;;;;;;;13.31;75.61;99906.01;361145;145;858720;-57
2021/09/26 02:51:50;;;;;;;3.84;2.37;;;;;;;13.34;75.39;99902.47;361432;145;857368;-58
2021/09/26 02:52:52;;;;;;;3.61;1.87;;;;;;;13.35;75.37;99907.66;362201;145;864627;-58
2021/09/26 02:53:54;;;;;;;3.46;1.85;;;;;;;13.39;75.44;99911.04;362540;145;857296;-57
2021/09/26 02:54:56;;;;;;;3.76;2.07;;;;;;;13.47;75.29;99906.56;362671;144;859237;-58
2021/09/26 02:55:59;;;;;;;7.32;1.69;;;;;;;;;;362448;145;858223;-57
2021/09/26 02:57:01;;;;;;;4.19;2.06;;;;;;;;;;362035;144;865935;-57
2021/09/26 02:58:02;;;;;;;4.48;2.41;;;;;;;;;;361861;145;857146;-57
2021/09/26 02:59:04;;;;;;;4.86;2.47;;;;;;;;;;361989;145;865880;-57
2021/09/26 03:00:07;;;;;;;3.53;2.32;;;;;;;;;;355388;147;860073;-57
2021/09/26 03:01:10;;;;;;;5.25;2.35;;;;;;;;;;356002;147;864803;-57
2021/09/26 03:02:11;;;;;;;6.90;2.72;;;;;;;;;;355502;148;857289;-58
2021/09/26 03:03:15;;;;;;;5.61;2.91;;;;;;;;;;362117;144;865410;-57
2021/09/26 03:04:17;;;;;;;7.02;2.99;;;;;;;;;;362318;145;866617;-57
2021/09/26 03:05:18;;;;;;;5.33;2.23;;;;;;;;;;362321;145;859687;-61
2021/09/26 03:06:21;;;;;;;6.56;2.58;;;;;;;;;;362267;145;857410;-57
2021/09/26 03:07:22;;;;;;;4.20;2.53;;;;;;;;;;362004;144;864778;-57
2021/09/26 03:08:24;;;;;;;6.33;2.68;;;;;;;;;;363389;146;857348;-58
2021/09/26 03:09:26;;;;;;;5.19;2.58;;;;;;;;;;363680;144;857169;-58
2021/09/26 03:10:27;;;;;;;6.97;2.70;;;;;;;;;;362955;145;864727;-57
2021/09/26 03:11:29;;;;;;;10.20;2.77;;;;;;;;;;363414;145;865642;-57
2021/09/26 03:12:30;;;;;;;8.96;3.21;;;;;;;;;;363403;144;866396;-57
2021/09/26 03:13:32;;;;;;;5.33;2.81;;;;;;;;;;363295;145;859035;-57
2021/09/26 03:14:34;;;;;;;7.61;2.88;;;;;;;;;;363432;144;859523;-57
2021/09/26 03:15:35;;;;;;;6.42;2.79;;;;;;;;;;364193;145;858717;-57
2021/09/26 03:16:37;;;;;;;6.02;2.44;;;;;;;;;;364702;144;858119;-57
2021/09/26 03:17:39;;;;;;;7.13;2.91;;;;;;;;;;364302;144;860026;-56
2021/09/26 03:18:40;;;;;;;5.99;2.50;;;;;;;;;;363804;146;857175;-57
2021/09/26 03:19:42;;;;;;;8.53;3.58;;;;;;;;;;367506;145;859093;-57
2021/09/26 03:20:44;;;;;;;9.09;3.14;;;;;;;;;;363314;144;858109;-58
2021/09/26 03:21:46;;;;;;;9.65;3.40;;;;;;;;;;364493;145;859044;-57
2021/09/26 03:22:48;;;;;;;5.02;2.96;;;;;;;;;;363616;144;856133;-58
2021/09/26 03:23:49;;;;;;;7.81;3.26;;;;;;;;;;363001;144;857259;-57
2021/09/26 03:24:51;;;;;;;4.91;2.74;;;;;;;;;;363811;144;857629;-57
2021/09/26 03:25:52;;;;;;;5.36;2.56;;;;;;;;;;365371;146;864835;-57
2021/09/26 03:26:55;;;;;;;6.26;2.75;;;;;;;;;;366856;144;857166;-57
2021/09/26 03:27:57;;;;;;;6.11;2.39;;;;;;;;;;363184;144;865670;-57
2021/09/26 03:28:58;;;;;;;5.18;2.83;;;;;;;;;;363817;144;858937;-57
2021/09/26 03:30:00;;;;;;;5.88;2.69;;;;;;;;;;363783;145;866149;-56
2021/09/26 03:31:01;;;;;;;6.93;2.71;;;;;;;;;;362521;145;858804;-57
2021/09/26 03:32:03;;;;;;;6.89;2.62;;;;;;;;;;363125;145;857154;-57
2021/09/26 03:33:05;;;;;;;7.93;3.29;;;;;;;;;;363183;144;864834;-57
2021/09/26 03:34:06;;;;;;;7.89;3.14;;;;;;;;;;364221;145;857223;-57
2021/09/26 03:35:09;;;;;;;6.09;2.91;;;;;;;;;;362690;144;857234;-59
2021/09/26 03:36:10;;;;;;;7.60;2.92;;;;;;;;;;362558;144;857267;-59
2021/09/26 03:37:12;;;;;;;5.39;2.53;;;;;;;;;;363651;146;856376;-59
2021/09/26 03:38:13;;;;;;;6.36;2.93;;;;;;;;;;362999;145;858715;-59
2021/09/26 03:39:15;;;;;;;5.66;3.00;;;;;;;;;;363596;145;857457;-57
2021/09/26 03:40:17;;;;;;;9.00;3.31;;;;;;;;;;362985;144;859843;-57
2021/09/26 03:41:18;;;;;;;8.58;3.31;;;;;;;;;;362735;145;865931;-57
2021/09/26 03:42:20;;;;;;;5.99;2.94;;;;;;;;;;362936;144;861327;-58
2021/09/26 03:43:21;;;;;;;6.84;2.71;;;;;;;;;;362800;146;857866;-58
2021/09/26 03:44:23;;;;;;;5.55;2.83;;;;;;;;;;363199;144;857841;-58
2021/09/26 03:45:24;;;;;;;9.14;3.04;;;;;;;;;;363301;144;857664;-59
2021/09/26 03:46:28;;;;;;;6.47;2.52;;;;;;;;;;362222;145;857156;-58
2021/09/26 03:47:29;;;;;;;5.52;3.00;;;;;;;;;;362800;146;858951;-58
2021/09/26 03:48:31;;;;;;;4.76;2.66;;;;;;;;;;362923;146;857353;-58
2021/09/26 03:49:33;;;;;;;5.54;2.72;;;;;;;;;;362718;144;858577;-58
2021/09/26 03:50:34;;;;;;;7.17;3.85;;;;;;;;;;362651;144;859193;-58
2021/09/26 03:51:36;;;;;;;6.54;3.08;;;;;;;;;;363001;146;860081;-58
2021/09/26 03:52:38;;;;;;;8.30;3.22;;;;;;;;;;363092;144;858224;-58
2021/09/26 03:53:39;;;;;;;8.25;3.78;;;;;;;;;;362432;144;857202;-58
2021/09/26 03:54:41;;;;;;;8.74;3.09;;;;;;;;;;363020;146;857271;-58
2021/09/26 03:55:42;;;;;;;5.88;2.53;;;;;;;;;;363049;146;857735;-57
2021/09/26 03:56:44;;;;;;;5.10;2.94;;;;;;;;;;363488;144;857156;-57
2021/09/26 03:57:46;;;;;;;10.78;2.30;;;;;;;;;;363354;145;857081;-57
2021/09/26 03:58:47;;;;;;;10.64;4.39;;;;;;;;;;364506;146;865313;-61
2021/09/26 03:59:49;;;;;;;8.99;3.14;;;;;;;;;;362927;144;858236;-58
2021/09/26 04:00:53;;;;;;;9.11;3.22;;;;;;;;;;362618;146;860151;-59
2021/09/26 04:01:54;;;;;;;7.28;3.45;;;;;;;;;;362834;146;858044;-58
2021/09/26 04:02:56;;;;;;;5.76;2.67;;;;;;;;;;363380;146;859671;-58
2021/09/26 04:03:57;;;;;;;5.19;2.24;;;;;;;;;;363000;144;857431;-58
2021/09/26 04:04:59;;;;;;;6.53;2.71;;;;;;;;;;363793;144;857216;-57
2021/09/26 04:06:00;;;;;;;8.78;2.97;;;;;;;;;;363204;146;857358;-57
2021/09/26 04:07:02;;;;;;;5.77;3.23;;;;;;;;;;362983;146;857181;-58
2021/09/26 04:08:04;;;;;;;9.43;3.36;;;;;;;;;;362416;144;857256;-58
2021/09/26 04:09:06;;;;;;;8.94;3.15;;;;;;;;;;363534;145;857595;-57
2021/09/26 04:10:08;;;;;;;8.01;3.09;;;;;;;;;;362265;146;864943;-58
2021/09/26 04:11:10;;;;;;;5.37;2.71;;;;;;;;;;363833;144;857213;-58
2021/09/26 04:12:11;;;;;;;9.43;3.11;;;;;;;;;;362845;144;856267;-58
2021/09/26 04:13:13;;;;;;;8.51;3.41;;;;;;;;;;362378;146;864794;-58
2021/09/26 04:14:15;;;;;;;6.71;3.06;;;;;;;;;;362955;146;857382;-59
2021/09/26 04:15:18;;;;;;;6.06;2.93;;;;;;;;;;362050;144;857721;-59
2021/09/26 04:16:20;;;;;;;8.76;2.68;;;;;;;;;;362901;144;866506;-57
2021/09/26 04:17:22;;;;;;;3.18;2.32;;;;;;;;;;363367;146;860345;-58
2021/09/26 04:18:23;;;;;;;7.70;2.33;;;;;;;;;;362598;144;857439;-57
2021/09/26 04:19:25;;;;;;;8.81;3.43;;;;;;;;;;354277;149;859217;-59
2021/09/26 04:20:27;;;;;;;8.64;3.21;;;;;;;;;;353565;148;858871;-58
2021/09/26 04:21:29;;;;;;;8.91;2.89;;;;;;;;;;362588;144;865929;-57
2021/09/26 04:22:30;;;;;;;7.42;3.11;;;;;;;;;;363375;144;864675;-59
2021/09/26 04:23:32;;;;;;;4.29;2.94;;;;;;;;;;362944;144;857664;-58
2021/09/26 04:24:33;;;;;;;11.26;3.84;;;;;;;;;;363169;146;856113;-57
2021/09/26 04:25:35;;;;;;;6.68;3.46;;;;;;;;;;362871;144;867980;-58
2021/09/26 04:26:37;;;;;;;9.18;3.61;;;;;;;;;;362497;144;857241;-60
2021/09/26 04:27:38;;;;;;;9.32;3.66;;;;;;;;;;362927;146;867082;-58
2021/09/26 04:28:40;;;;;;;7.66;3.41;;;;;;;;;;362913;146;858598;-58
2021/09/26 04:29:41;;;;;;;8.84;3.71;;;;;;;;;;362525;144;858000;-58
2021/09/26 04:30:43;;;;;;;7.00;3.66;;;;;;;;;;362397;145;864863;-64
2021/09/26 04:31:45;;;;;;;11.32;3.71;;;;;;;;;;358243;143;863214;-61
2021/09/26 04:32:46;;;;;;;6.88;3.29;;;;;;;;;;349476;150;859040;-63
2021/09/26 04:33:48;;;;;;;7.59;3.63;;;;;;;;;;352300;150;859346;-62
2021/09/26 04:34:50;;;;;;;10.18;3.73;;;;;;;;;;349557;150;858931;-64
2021/09/26 04:35:51;;;;;;;6.64;3.46;;;;;;;;;;348816;151;857713;-62
2021/09/26 04:36:54;;;;;;;7.89;3.91;;;;;;;;;;349557;150;857233;-62
2021/09/26 04:37:57;;;;;;;8.60;3.53;;;;;;;;;;348863;150;866529;-62
2021/09/26 04:38:59;;;;;;;6.37;3.41;;;;;;;;;;349370;151;866557;-60
2021/09/26 04:40:00;;;;;;;10.13;3.69;;;;;;;;;;349788;150;857319;-64
2021/09/26 04:41:02;;;;;;;7.48;3.91;;;;;;;;;;351446;150;858725;-62
2021/09/26 04:42:05;;;;;;;7.76;3.54;;;;;;;;;;351039;151;856112;-60
2021/09/26 04:43:06;;;;;;;9.84;3.74;;;;;;;;;;349773;150;857748;-60
2021/09/26 08:31:50;;;;;;;8.68;2.11;;;;;;;15.76;53.26;100115.81;371723;142;880432;-67
2021/09/26 08:32:52;;;;;;;7.45;1.87;;;;;;;15.82;53.36;100125.25;363213;145;860043;-67
2021/09/26 08:33:54;;;;;;;8.53;1.79;;;;;;;15.86;52.76;100114.67;363629;144;857285;-66
2021/09/26 08:34:55;;;;;;;9.54;2.54;;;;;;;16.04;53.32;100117.73;364876;145;859837;-64
2021/09/26 08:35:57;;;;;;;8.41;1.88;;;;;;;15.88;53.11;100117.28;363817;144;866233;-64
2021/09/26 08:36:59;;;;;;;9.17;2.47;;;;;;;16.13;51.85;100114.86;362910;145;865615;-66
2021/09/26 08:38:01;;;;;;;9.23;2.31;;;;;;;16.28;51.46;100115.31;363071;145;857253;-65
2021/09/26 08:39:03;;;;;;;10.38;2.35;;;;;;;16.35;51.74;100114.23;363286;145;865561;-65
2021/09/26 08:40:06;;;;;;;14.13;2.45;;;;;;;15.94;51.53;100126.72;362862;145;864889;-66
2021/09/26 08:41:08;;;;;;;13.61;2.54;;;;;;;15.89;51.71;100117.23;363830;145;856392;-67
2021/09/26 08:42:10;;;;;;;7.74;2.01;;;;;;;16.15;52.05;100109.58;362367;147;856176;-66
2021/09/26 08:43:11;;;;;;;10.88;2.49;;;;;;;16.42;51.08;100101.83;363206;146;856611;-66
2021/09/26 08:44:13;;;;;;;10.13;3.31;;;;;;;16.65;50.29;100111.61;362142;145;863871;-66
2021/09/26 08:45:17;;;;;;;13.16;2.25;;;;;;;16.86;50.29;100120.55;357826;147;864145;-66
2021/09/26 08:46:19;;;;;;;9.24;2.66;;;;;;;17.04;50.07;100108.70;357708;147;866838;-65
2021/09/26 08:47:21;;;;;;;10.09;2.03;;;;;;;17.17;48.84;100114.38;361843;144;861395;-65
2021/09/26 08:48:23;;;;;;;8.38;1.83;;;;;;;17.24;48.66;100115.04;359421;145;865537;-65
2021/09/26 08:49:25;;;;;;;11.80;2.42;;;;;;;17.32;48.36;100120.88;357620;148;865014;-65
2021/09/26 08:50:29;;;;;;;9.66;2.37;;;;;;;17.28;47.87;100121.88;354725;148;856386;-65
2021/09/26 08:51:31;;;;;;;9.96;2.34;;;;;;;17.37;48.08;100118.08;358423;147;856287;-66
2021/09/26 08:52:33;;;;;;;9.45;2.30;;;;;;;17.30;47.90;100103.50;356608;148;863686;-66
2021/09/26 08:53:34;;;;;;;10.37;2.61;;;;;;;17.53;48.41;100110.58;357798;148;864004;-65
2021/09/26 08:54:36;;;;;;;8.33;1.95;;;;;;;17.49;47.87;100107.20;356918;147;864425;-66
2021/09/26 08:55:38;;;;;;;9.88;2.42;;;;;;;17.73;48.30;100120.38;358736;147;863695;-66
2021/09/26 08:56:41;;;;;;;12.60;2.39;;;;;;;17.79;47.71;100127.14;357975;147;864778;-66
2021/09/26 08:57:43;;;;;;;10.23;2.21;;;;;;;17.79;47.71;100127.14;357642;147;856251;-67
2021/09/26 08:58:45;;;;;;;9.01;1.77;;;;;;;;;;357888;147;856382;-66
2021/09/26 08:59:46;;;;;;;10.16;2.58;;;;;;;;;;357993;147;856361;-64
2021/09/26 09:00:48;;;;;;;8.42;1.81;;;;;;;;;;358319;147;856227;-67
2021/09/26 09:01:50;;;;;;;6.60;1.83;;;;;;;;;;357801;148;856241;-66
2021/09/26 09:02:51;;;;;;;9.24;2.48;;;;;;;;;;359419;147;856204;-66
2021/09/26 09:03:53;;;;;;;10.16;1.92;;;;;;;;;;351691;150;857414;-66
2021/09/26 09:04:54;;;;;;;10.31;2.66;;;;;;;;;;354543;150;856259;-66
2021/09/26 09:05:56;;;;;;;12.27;2.53;;;;;;;;;;344460;153;856995;-64
2021/09/26 09:07:00;;;;;;;9.76;2.29;;;;;;;;;;358372;147;856832;-66
2021/09/26 09:08:02;;;;;;;7.19;1.98;;;;;;;;;;357599;147;864173;-67
2021/09/26 09:09:16;;;;;;;7.81;2.14;;;;;;;;;;357336;147;856805;-66
2021/09/26 09:10:18;;;;;;;7.87;2.05;;;;;;;;;;356897;147;856587;-65
2021/09/26 09:11:20;;;;;;;6.14;1.89;;;;;;;;;;357511;147;856690;-66
2021/09/26 09:12:28;;;;;;;10.15;2.31;;;;;;;;;;357376;147;863912;-67
2021/09/26 09:13:32;;;;;;;9.33;2.80;;;;;;;;;;358014;147;856328;-64
2021/09/26 09:14:54;;;;;;;8.44;2.27;;;;;;;;;;357483;148;856412;-66
2021/09/26 09:15:57;;;;;;;10.27;2.22;;;;;;;;;;356941;147;857142;-64
2021/09/26 09:16:59;;;;;;;8.59;3.41;;;;;;;;;;357241;148;857151;-65
2021/09/26 09:18:01;;;;;;;8.23;2.24;;;;;;;;;;357596;148;856382;-66
2021/09/26 09:19:02;;;;;;;9.25;2.15;;;;;;;;;;358569;147;864029;-65
2021/09/26 09:20:23;;;;;;;9.39;2.41;;;;;;;;;;357805;147;856272;-63
2021/09/26 09:21:29;;;;;;;7.72;2.08;;;;;;;;;;360528;148;863794;-65
2021/09/26 09:22:31;;;;;;;10.74;1.70;;;;;;;;;;358500;147;856189;-67
2021/09/26 09:23:32;;;;;;;8.48;1.95;;;;;;;;;;358008;148;856608;-66
2021/09/26 09:24:36;;;;;;;8.16;2.12;;;;;;;;;;358354;147;856303;-67
2021/09/26 09:25:39;;;;;;;7.77;2.26;;;;;;;;;;357046;147;857040;-66
2021/09/26 09:26:43;;;;;;;7.26;2.31;;;;;;;;;;356491;147;856718;-66
2021/09/26 09:27:46;;;;;;;7.35;1.91;;;;;;;;;;357466;147;863663;-66
2021/09/26 09:30:36;;;;;;;8.62;2.31;;;;;;;18.31;44.07;100103.47;370529;142;883069;-60
2021/09/26 09:31:55;;;;;;;11.53;2.46;;;;;;;17.97;45.87;100120.41;364054;146;857915;-61
2021/09/26 09:32:57;;;;;;;6.64;2.21;;;;;;;18.29;44.78;100118.41;362399;146;859180;-60
2021/09/26 09:34:04;;;;;;;11.94;2.44;;;;;;;18.34;44.42;100113.84;363053;146;858215;-61
2021/09/26 09:35:06;;;;;;;7.41;2.19;;;;;;;18.28;44.59;100113.23;351668;150;863884;-61
2021/09/26 09:36:28;;;;;;;7.52;1.98;;;;;;;18.28;44.59;100113.23;361717;147;857351;-61
2021/09/26 09:37:29;;;;;;;10.36;2.41;;;;;;;17.83;46.11;100115.66;363446;146;856378;-61
2021/09/26 09:38:37;;;;;;;14.58;2.89;;;;;;;18.19;45.73;100122.28;363574;146;856259;-60
2021/09/26 09:39:39;;;;;;;7.79;2.39;;;;;;;18.11;44.85;100122.58;363582;146;863844;-60
2021/09/26 09:40:41;;;;;;;7.28;1.75;;;;;;;17.75;44.75;100118.56;363302;147;856360;-61
2021/09/26 09:41:50;;;;;;;5.51;1.79;;;;;;;17.92;44.29;100125.80;363263;146;856350;-62
2021/09/26 09:42:49;;;;;;;8.57;2.26;;;;;;;17.91;44.00;100120.63;361909;146;863955;-62
2021/09/26 09:43:52;;;;;;;8.09;2.79;;;;;;;17.91;44.00;100120.63;363613;146;856270;-62
2021/09/26 09:44:54;;;;;;;8.33;1.77;;;;;;;18.10;43.18;100120.87;363492;145;856347;-62
2021/09/26 09:45:57;;;;;;;8.57;2.01;;;;;;;17.57;43.36;100121.81;356629;147;864002;-62
2021/09/26 09:46:59;;;;;;;9.98;2.05;;;;;;;17.65;43.92;100112.77;357280;147;863924;-61